Toronto, South Dakota
Current Conditions -  °F | °C
As of 9:14 AM on Thursday 18 Dec 2014 (Local Time) from KCNB Reporting Station
Overcast Overcast  
Wind Chill:   Ceiling: 7000
Heat Index: 15°   Visibility: 7mi
Dew Point: 13°   Wind: 6mph
Humidity: 92%   Direction: 140°SE
Pressure: 30.26"   Gusts: NA
Location:  44.57°N, 96.64°W
Report Text: KCNB 181514Z AUTO 14005KT 7SM OVC070 M09/M10 A3026 RMK AO2 T10921103
Loading
Personal Weather Stations






























Interactive Weather Map New forecast layout! Learn more

10-Day Weather Forecast

Advertisements
Track Severe Weather on mobile